Time;durP1;ratioP1;P1;durP2;ratioP2;P2;SDS_P1;SDS_P2;PMS_P1;PMS_P2;Temp;Humidity;BMP_temperature;BMP_pressure;BME280_temperature;BME280_humidity;BME280_pressure;Samples;Min_cycle;Max_cycle;Signal;HPM_P1;HPM_P2
2021/07/10 00:00:35;;;;;;;6.82;5.60;;;;;;;15.34;74.75;97148.06;5041827;28;20045;-79
2021/07/10 00:03:03;;;;;;;6.28;5.05;;;;;;;15.33;74.50;97151.72;5040909;28;20052;-79
2021/07/10 00:05:30;;;;;;;6.28;5.40;;;;;;;15.30;74.35;97152.09;5041254;28;20045;-78
2021/07/10 00:07:58;;;;;;;6.13;5.57;;;;;;;15.29;74.85;97137.34;5041615;28;20045;-80
2021/07/10 00:10:26;;;;;;;6.47;4.97;;;;;;;15.28;74.42;97154.13;5041306;28;20049;-78
2021/07/10 00:12:54;;;;;;;7.28;5.28;;;;;;;15.27;74.69;97142.81;5041018;28;20060;-79
2021/07/10 00:15:24;;;;;;;6.15;5.53;;;;;;;15.23;74.46;97146.84;5041276;28;20053;-78
2021/07/10 00:17:53;;;;;;;6.15;4.97;;;;;;;15.21;74.77;97147.03;5041355;28;20392;-79
2021/07/10 00:20:22;;;;;;;7.72;5.80;;;;;;;15.20;74.53;97139.34;5040687;28;20049;-80
2021/07/10 00:22:50;;;;;;;8.07;5.43;;;;;;;15.17;74.63;97134.47;5040826;28;20056;-79
2021/07/10 00:25:20;;;;;;;5.47;4.90;;;;;;;15.15;74.87;97139.94;5041245;28;20502;-79
2021/07/10 00:27:49;;;;;;;6.15;5.18;;;;;;;15.14;74.58;97138.31;5040763;28;20060;-78
2021/07/10 00:30:20;;;;;;;9.77;6.63;;;;;;;15.13;74.96;97141.13;5040476;28;20526;-78
2021/07/10 00:32:49;;;;;;;6.03;5.03;;;;;;;15.14;74.91;97137.50;5040573;28;20049;-78
2021/07/10 00:35:18;;;;;;;4.72;4.32;;;;;;;15.14;74.95;97137.50;5040825;28;20080;-78
2021/07/10 00:37:46;;;;;;;5.78;4.78;;;;;;;15.12;74.64;97140.31;5042349;28;20053;-78
2021/07/10 00:40:15;;;;;;;7.18;5.40;;;;;;;15.11;74.51;97132.63;5042748;28;20051;-76
2021/07/10 00:42:45;;;;;;;8.40;4.80;;;;;;;15.07;74.60;97131.44;5042904;28;20046;-78
2021/07/10 00:45:14;;;;;;;6.78;5.00;;;;;;;15.05;74.69;97129.00;5042524;28;20050;-78
2021/07/10 00:47:42;;;;;;;6.15;5.25;;;;;;;15.02;74.80;97113.59;5041303;28;20055;-79
2021/07/10 00:50:11;;;;;;;5.55;4.80;;;;;;;14.99;74.80;97114.00;5041542;28;20050;-79
2021/07/10 00:52:41;;;;;;;7.78;5.15;;;;;;;14.96;75.06;97117.03;5040967;28;20072;-80
2021/07/10 00:55:10;;;;;;;5.68;5.05;;;;;;;14.94;74.63;97121.69;5042096;28;20049;-78
2021/07/10 00:57:38;;;;;;;4.53;4.18;;;;;;;14.91;74.76;97122.06;5041945;28;20061;-79
2021/07/10 01:00:09;;;;;;;5.38;4.88;;;;;;;14.87;74.57;97116.41;5042130;28;20049;-78
2021/07/10 01:02:38;;;;;;;5.18;4.68;;;;;;;14.85;75.29;97105.28;5041252;28;20057;-79
2021/07/10 01:05:08;;;;;;;5.18;4.53;;;;;;;14.89;75.20;97103.06;5041884;28;20080;-78
2021/07/10 01:07:36;;;;;;;5.30;4.75;;;;;;;14.88;75.01;97101.44;5042298;28;20050;-78
2021/07/10 01:10:05;;;;;;;4.95;4.55;;;;;;;14.86;74.89;97099.00;5041776;28;20053;-80
2021/07/10 01:12:33;;;;;;;4.97;4.47;;;;;;;14.86;74.48;97103.47;5042040;28;20558;-78
2021/07/10 01:15:01;;;;;;;5.43;4.88;;;;;;;14.86;75.19;97104.25;5042164;28;20053;-77
2021/07/10 01:17:29;;;;;;;4.78;4.38;;;;;;;14.90;76.11;97102.06;5041855;28;20507;-78
2021/07/10 01:20:01;;;;;;;4.95;4.47;;;;;;;14.92;74.80;97097.44;5041658;28;20057;-78
2021/07/10 01:22:31;;;;;;;;;;;;;;;14.95;74.74;97097.03;5042154;28;20049;-78
2021/07/10 01:24:59;;;;;;;4.00;3.58;;;;;;;14.91;74.11;97095.78;5041432;28;20271;-78
2021/07/10 01:27:26;;;;;;;4.18;3.65;;;;;;;14.88;73.67;97096.19;5040924;28;20056;-77
2021/07/10 01:29:56;;;;;;;4.40;4.00;;;;;;;14.84;73.87;97095.75;5041176;28;20503;-79
2021/07/10 01:32:24;;;;;;;6.60;3.80;;;;;;;14.78;73.71;97091.28;5040864;28;20057;-78
2021/07/10 01:34:52;;;;;;;5.53;4.18;;;;;;;14.73;73.93;97086.63;5041530;28;20053;-79
2021/07/10 01:37:19;;;;;;;4.50;4.20;;;;;;;14.73;73.87;97078.75;5040410;28;20060;-77
2021/07/10 01:39:48;;;;;;;4.10;3.80;;;;;;;14.78;75.84;97075.53;5066678;22;20057;-77
2021/07/10 01:42:16;;;;;;;8.32;5.18;;;;;;;14.75;74.34;97074.13;5014816;28;20050;-80
2021/07/10 01:44:44;;;;;;;5.35;4.85;;;;;;;14.74;75.94;97077.75;5014449;28;20062;-80
2021/07/10 01:47:11;;;;;;;5.55;4.25;;;;;;;14.78;75.32;97072.91;5014612;28;20049;-81
2021/07/10 01:49:39;;;;;;;5.63;4.30;;;;;;;14.72;74.28;97069.28;5015071;28;20104;-80
2021/07/10 01:52:07;;;;;;;5.25;4.30;;;;;;;14.67;74.10;97068.22;5014583;28;20437;-80
2021/07/10 01:54:34;;;;;;;6.90;4.65;;;;;;;14.61;74.27;97061.97;5014260;28;20050;-80
2021/07/10 01:57:07;;;;;;;6.18;4.43;;;;;;;14.55;74.07;97060.09;5014398;28;20050;-80
2021/07/10 01:59:34;;;;;;;6.28;4.32;;;;;;;14.51;74.50;97058.84;5014956;28;20438;-80
2021/07/10 02:02:02;;;;;;;4.57;4.13;;;;;;;14.48;74.60;97059.25;5014024;28;20423;-80
2021/07/10 02:04:29;;;;;;;8.07;5.70;;;;;;;14.46;74.44;97062.06;5014185;28;20061;-80
2021/07/10 02:06:57;;;;;;;5.38;4.38;;;;;;;14.46;74.63;97067.31;5014299;28;20065;-80
2021/07/10 02:09:24;;;;;;;5.22;4.53;;;;;;;14.45;74.39;97059.63;5014336;28;20065;-80
2021/07/10 02:11:52;;;;;;;5.40;4.45;;;;;;;14.45;74.50;97064.88;5014226;28;20104;-80
2021/07/10 02:14:21;;;;;;;6.18;4.82;;;;;;;14.45;74.83;97059.63;5013746;28;20068;-80
2021/07/10 02:16:49;;;;;;;5.15;4.55;;;;;;;14.48;75.34;97064.50;5014284;28;20049;-80
2021/07/10 02:19:17;;;;;;;5.28;4.78;;;;;;;14.52;76.22;97061.28;5014309;28;20655;-80
2021/07/10 02:21:44;;;;;;;6.53;4.75;;;;;;;14.57;75.95;97058.09;5014102;28;20046;-80
2021/07/10 02:24:12;;;;;;;5.10;4.68;;;;;;;14.55;74.77;97054.84;5013910;28;20049;-80
2021/07/10 02:26:39;;;;;;;6.57;5.65;;;;;;;14.49;74.29;97056.41;5013873;28;20050;-79
2021/07/10 02:29:07;;;;;;;5.32;4.40;;;;;;;14.44;75.98;97045.69;5013862;28;20503;-80
2021/07/10 02:31:36;;;;;;;6.28;4.97;;;;;;;14.45;75.43;97054.38;5037169;28;20088;-79
2021/07/10 02:34:04;;;;;;;5.28;4.88;;;;;;;14.45;76.27;97049.91;5038222;28;20061;-79
2021/07/10 02:36:32;;;;;;;5.60;4.55;;;;;;;14.44;75.75;97053.56;5022665;28;20053;-79
2021/07/10 02:39:00;;;;;;;8.18;5.60;;;;;;;14.49;77.40;97048.53;5014541;28;20049;-80
2021/07/10 02:41:27;;;;;;;5.85;5.30;;;;;;;14.60;79.08;97044.56;5014528;28;20149;-79
2021/07/10 02:43:55;;;;;;;5.95;5.35;;;;;;;14.65;78.05;97043.97;5034875;28;20052;-78
2021/07/10 02:46:22;;;;;;;5.68;4.55;;;;;;;14.63;76.07;97038.94;5034131;28;20056;-79
2021/07/10 02:48:51;;;;;;;6.80;5.82;;;;;;;14.66;78.46;97041.16;5014265;28;20061;-80
2021/07/10 02:51:19;;;;;;;5.70;4.85;;;;;;;14.67;76.38;97032.28;5013799;28;20057;-80
2021/07/10 02:53:47;;;;;;;5.95;5.13;;;;;;;14.66;75.85;97030.66;5013507;28;20053;-80
2021/07/10 02:56:14;;;;;;;6.40;5.80;;;;;;;14.62;76.70;97034.69;5013345;28;20046;-80
2021/07/10 02:58:43;;;;;;;6.55;5.88;;;;;;;14.60;76.77;97031.44;5014157;28;20053;-80
2021/07/10 03:01:10;;;;;;;6.25;5.65;;;;;;;14.62;77.81;97034.69;5013458;28;20054;-80
2021/07/10 03:03:38;;;;;;;6.35;5.75;;;;;;;14.59;77.73;97033.25;5013228;28;20054;-80
2021/07/10 03:06:07;;;;;;;6.55;5.57;;;;;;;14.61;78.02;97033.88;5013145;28;20706;-80
2021/07/10 03:08:35;;;;;;;6.30;5.70;;;;;;;14.62;77.15;97024.19;5012929;28;20054;-80
2021/07/10 03:11:02;;;;;;;8.05;6.25;;;;;;;14.57;75.77;97026.59;5013299;28;20050;-79
2021/07/10 03:13:30;;;;;;;6.60;5.68;;;;;;;14.52;75.40;97018.44;5012991;28;20054;-80
2021/07/10 03:15:57;;;;;;;7.53;6.05;;;;;;;14.46;75.39;97021.88;5013106;28;20046;-80
2021/07/10 03:18:25;;;;;;;5.55;5.05;;;;;;;14.43;76.29;97021.25;5013061;28;20054;-80
2021/07/10 03:20:52;;;;;;;10.05;5.53;;;;;;;14.47;75.91;97026.13;5012758;28;20347;-80
2021/07/10 03:23:21;;;;;;;7.05;5.65;;;;;;;14.49;75.95;97016.22;5012571;28;20065;-80
2021/07/10 03:25:48;;;;;;;6.88;6.18;;;;;;;14.41;74.82;97022.47;5012659;28;20053;-80
2021/07/10 03:28:16;;;;;;;9.50;7.28;;;;;;;14.31;74.84;97019.38;5013128;28;20053;-80
2021/07/10 03:30:48;;;;;;;5.82;5.32;;;;;;;14.26;76.12;97019.97;5012719;28;20050;-80
2021/07/10 03:33:15;;;;;;;9.13;5.97;;;;;;;14.23;75.30;97020.34;5012549;28;20125;-80
2021/07/10 03:35:43;;;;;;;7.20;5.55;;;;;;;14.21;75.12;97011.84;5012749;28;20049;-80
2021/07/10 03:38:11;;;;;;;7.50;6.07;;;;;;;14.17;75.31;97016.69;5013119;28;20042;-79
2021/07/10 03:40:39;;;;;;;11.95;6.68;;;;;;;14.17;75.36;97015.91;5012807;28;20050;-80
2021/07/10 03:43:07;;;;;;;9.70;7.43;;;;;;;14.18;75.25;97012.25;5012668;28;20054;-79
2021/07/10 03:45:34;;;;;;;7.20;6.43;;;;;;;14.18;75.45;97007.00;5012783;28;20070;-80
2021/07/10 03:48:02;;;;;;;9.18;6.97;;;;;;;14.18;75.57;97012.25;5012943;28;20439;-80
2021/07/10 03:50:30;;;;;;;8.32;6.40;;;;;;;14.16;75.37;97009.00;5012709;28;20046;-80
2021/07/10 03:52:57;;;;;;;6.95;6.35;;;;;;;14.17;76.79;97005.41;5012629;28;20058;-79
2021/07/10 03:55:30;;;;;;;7.70;5.95;;;;;;;14.16;75.66;97003.78;5013309;28;20140;-80
2021/07/10 03:58:01;;;;;;;7.72;6.93;;;;;;;14.15;75.15;97002.16;5013073;28;20056;-80
2021/07/10 04:00:28;;;;;;;8.05;7.20;;;;;;;14.11;75.46;96995.69;5012774;28;20061;-80
2021/07/10 04:02:56;;;;;;;7.20;6.40;;;;;;;14.11;75.77;96995.69;5012624;28;20061;-80
2021/07/10 04:05:24;;;;;;;8.48;7.05;;;;;;;14.14;75.51;97000.53;5012662;28;20049;-80
2021/07/10 04:07:51;;;;;;;7.68;6.80;;;;;;;14.13;75.41;96998.94;5012307;28;20046;-80
2021/07/10 04:10:19;;;;;;;8.43;7.13;;;;;;;14.12;75.29;97002.53;5012410;28;20111;-80
2021/07/10 04:12:47;;;;;;;8.63;7.03;;;;;;;14.08;75.74;96996.88;5012166;28;20054;-80
2021/07/10 04:15:19;;;;;;;8.73;7.82;;;;;;;14.09;76.27;96997.69;5012194;28;20057;-80
2021/07/10 04:17:47;;;;;;;18.27;8.65;;;;;;;14.13;75.84;96988.44;5012530;28;20069;-80
2021/07/10 04:20:17;;;;;;;8.60;6.72;;;;;;;14.15;75.58;96994.28;5012196;28;20057;-80
2021/07/10 04:22:45;;;;;;;7.47;6.78;;;;;;;14.16;76.77;96991.44;5012005;28;20561;-80
2021/07/10 04:25:15;;;;;;;11.50;8.18;;;;;;;14.19;76.67;96996.34;5012282;28;20412;-80
2021/07/10 04:27:43;;;;;;;9.65;8.13;;;;;;;14.18;75.98;97001.75;5012536;28;20056;-80
2021/07/10 04:30:12;;;;;;;9.75;8.45;;;;;;;14.20;76.34;97005.00;5012158;28;20053;-80
2021/07/10 04:32:41;;;;;;;10.90;8.88;;;;;;;14.30;79.61;97002.84;5011694;28;20056;-79
2021/07/10 04:35:11;;;;;;;7.75;6.47;;;;;;;14.39;78.80;97006.09;5012152;28;20080;-80
2021/07/10 04:37:38;;;;;;;7.25;6.55;;;;;;;14.40;78.55;97003.25;5015440;28;20054;-80
2021/07/10 04:40:08;;;;;;;9.27;7.25;;;;;;;14.43;78.83;97010.78;5015628;28;20053;-80
2021/07/10 04:42:35;;;;;;;8.15;7.32;;;;;;;14.46;79.44;97011.38;5015359;28;20057;-80
2021/07/10 04:45:04;;;;;;;8.30;7.50;;;;;;;14.54;80.00;97016.44;5016094;28;20053;-80
2021/07/10 04:47:31;;;;;;;10.15;7.20;;;;;;;14.59;79.31;97008.84;5015725;28;20061;-80
2021/07/10 04:50:00;;;;;;;8.65;7.00;;;;;;;14.70;81.19;97004.84;5015573;28;20053;-79
2021/07/10 04:52:28;;;;;;;7.28;6.63;;;;;;;14.78;81.21;97007.25;5015366;28;20057;-80
2021/07/10 04:54:55;;;;;;;6.90;6.20;;;;;;;14.82;81.07;97009.31;5015546;28;20046;-80
2021/07/10 04:57:23;;;;;;;6.85;5.47;;;;;;;14.86;80.25;97003.66;5015414;28;20471;-80
2021/07/10 04:59:50;;;;;;;9.13;6.68;;;;;;;14.86;79.49;97014.16;5015504;28;20054;-79
2021/07/10 05:02:20;;;;;;;7.93;6.40;;;;;;;14.90;81.26;97010.13;5015281;28;20046;-80
2021/07/10 05:04:48;;;;;;;7.65;6.18;;;;;;;14.93;80.24;97012.34;5015376;28;20451;-80
2021/07/10 05:07:17;;;;;;;6.97;6.28;;;;;;;14.97;80.69;97010.94;5015350;28;20046;-80
2021/07/10 05:09:44;;;;;;;7.60;6.40;;;;;;;14.97;78.79;97010.94;5015462;28;20058;-80
2021/07/10 05:12:11;;;;;;;7.80;6.43;;;;;;;15.01;79.50;97014.78;5015875;28;20120;-80
2021/07/10 05:14:39;;;;;;;7.60;6.90;;;;;;;15.03;80.21;97016.22;5015124;28;20050;-79
2021/07/10 05:17:06;;;;;;;7.68;6.97;;;;;;;15.06;80.75;97017.63;5015125;28;20058;-80
2021/07/10 05:19:34;;;;;;;9.57;6.85;;;;;;;15.10;80.80;97010.16;5015182;28;20057;-80
2021/07/10 05:22:01;;;;;;;7.20;6.47;;;;;;;15.12;80.11;97003.69;5014957;28;20054;-80
2021/07/10 05:24:30;;;;;;;7.30;6.60;;;;;;;15.15;80.47;97003.31;5014871;28;20056;-80
2021/07/10 05:26:58;;;;;;;6.95;6.07;;;;;;;15.14;79.05;96996.41;5014974;28;20060;-80
2021/07/10 05:29:25;;;;;;;6.97;5.90;;;;;;;15.17;79.66;97000.47;5015054;28;20057;-80
2021/07/10 05:31:53;;;;;;;6.40;5.80;;;;;;;15.19;79.91;96999.25;5014699;28;20495;-80
2021/07/10 05:34:20;;;;;;;6.88;5.43;;;;;;;15.23;79.74;96995.22;5014693;28;20064;-80
2021/07/10 05:36:48;;;;;;;8.98;5.68;;;;;;;15.25;79.12;97003.69;5014785;28;20569;-80
2021/07/10 05:39:15;;;;;;;6.45;5.82;;;;;;;15.29;80.05;97006.75;5014764;28;20050;-80
2021/07/10 05:41:45;;;;;;;5.97;5.43;;;;;;;15.27;77.70;97015.84;5014810;28;20058;-80
2021/07/10 05:44:12;;;;;;;7.03;5.53;;;;;;;15.19;76.82;97003.69;5014400;28;20058;-80
2021/07/10 05:46:40;;;;;;;9.18;5.90;;;;;;;15.13;76.75;97005.31;5014861;28;20426;-80
2021/07/10 05:49:07;;;;;;;6.22;5.60;;;;;;;15.14;77.15;96996.41;5014040;28;20507;-80
2021/07/10 05:51:35;;;;;;;6.95;6.25;;;;;;;15.19;78.93;96988.72;5014660;28;20454;-80
2021/07/10 05:54:02;;;;;;;6.47;5.88;;;;;;;15.30;79.96;96999.66;5014527;28;20049;-80
2021/07/10 05:56:30;;;;;;;6.68;6.07;;;;;;;15.38;80.33;96996.84;5014533;28;20522;-79
2021/07/10 05:58:59;;;;;;;6.90;6.20;;;;;;;15.42;80.24;96998.06;5025019;28;20046;-78
2021/07/10 06:01:26;;;;;;;6.68;5.97;;;;;;;15.48;80.30;96997.25;5039075;28;20040;-79
2021/07/10 06:03:54;;;;;;;7.95;6.53;;;;;;;15.52;80.24;97002.91;5035749;28;20046;-80
2021/07/10 06:06:21;;;;;;;7.95;5.75;;;;;;;15.57;80.67;97005.75;5015730;28;20056;-80
2021/07/10 06:08:49;;;;;;;6.28;5.32;;;;;;;15.59;78.37;96999.28;5015392;28;20054;-80
2021/07/10 06:11:17;;;;;;;6.25;5.22;;;;;;;15.61;78.75;96999.88;5022561;28;20061;-78
2021/07/10 06:13:45;;;;;;;6.53;5.88;;;;;;;15.64;79.31;96996.81;5036147;28;20411;-79
2021/07/10 06:16:15;;;;;;;7.05;5.60;;;;;;;15.70;79.21;96999.63;5022843;28;20049;-80
2021/07/10 06:18:43;;;;;;;6.47;5.88;;;;;;;15.77;79.98;97003.13;5015199;28;20053;-80
2021/07/10 06:21:10;;;;;;;7.10;5.88;;;;;;;15.83;80.44;96992.59;5014210;28;20049;-80
2021/07/10 06:23:39;;;;;;;9.43;5.65;;;;;;;15.88;79.03;96994.59;5014043;28;20104;-80
2021/07/10 06:26:06;;;;;;;8.63;6.00;;;;;;;15.92;79.01;96989.72;5014395;28;20092;-80
2021/07/10 06:28:34;;;;;;;22.52;18.50;;;;;;;15.99;78.73;96993.97;5013956;28;20077;-80
2021/07/10 06:31:01;;;;;;;8.63;7.85;;;;;;;16.06;78.87;96986.84;5014495;28;20058;-80
2021/07/10 06:33:30;;;;;;;8.38;7.07;;;;;;;16.15;78.58;96986.63;5013701;28;20462;-80
2021/07/10 06:35:58;;;;;;;7.13;6.50;;;;;;;16.22;78.66;96988.25;5014228;28;20057;-80
2021/07/10 06:38:25;;;;;;;7.90;7.10;;;;;;;16.30;78.27;96984.56;5013951;28;20125;-80
2021/07/10 06:40:52;;;;;;;7.85;7.10;;;;;;;16.37;78.30;96985.34;5013697;28;20057;-80
2021/07/10 06:43:20;;;;;;;7.65;6.80;;;;;;;16.43;77.60;96984.50;5013506;28;20065;-81
2021/07/10 06:45:47;;;;;;;26.88;19.88;;;;;;;16.48;77.43;96982.03;5014399;28;20081;-80
2021/07/10 06:48:15;;;;;;;7.97;7.18;;;;;;;16.57;77.38;96977.34;5015714;28;20479;-80
2021/07/10 06:50:44;;;;;;;8.50;7.10;;;;;;;16.65;77.22;96986.84;5014862;28;20049;-80
2021/07/10 06:53:11;;;;;;;7.65;6.93;;;;;;;16.73;77.16;96989.22;5013275;28;20049;-80
2021/07/10 06:55:39;;;;;;;8.35;6.80;;;;;;;16.80;77.05;96990.03;5013348;28;20500;-80
2021/07/10 06:58:07;;;;;;;8.35;6.55;;;;;;;16.88;76.48;96989.78;5013760;28;20054;-80
2021/07/10 07:00:34;;;;;;;6.25;5.63;;;;;;;16.97;75.89;96994.81;5012627;28;20057;-80
2021/07/10 07:03:01;;;;;;;7.03;6.10;;;;;;;17.06;75.60;96988.25;5013196;28;20045;-80
2021/07/10 07:05:30;;;;;;;6.60;5.55;;;;;;;17.14;75.09;96989.81;5013148;28;20527;-79
2021/07/10 07:07:59;;;;;;;6.70;5.78;;;;;;;17.22;74.90;96997.47;5013833;28;20049;-79
2021/07/10 07:10:26;;;;;;;6.53;5.88;;;;;;;17.30;74.21;96984.03;5013257;28;20053;-80
2021/07/10 07:12:54;;;;;;;6.00;5.50;;;;;;;17.37;75.34;96986.59;5013103;28;20042;-80
2021/07/10 07:15:21;;;;;;;7.38;6.35;;;;;;;17.45;74.45;96981.06;5013417;28;20054;-80
2021/07/10 07:17:49;;;;;;;6.07;5.55;;;;;;;17.53;74.28;96982.63;5013152;28;20061;-80
2021/07/10 07:20:18;;;;;;;7.00;5.45;;;;;;;17.61;74.56;96980.50;5013041;28;20455;-80
2021/07/10 07:22:47;;;;;;;6.82;6.13;;;;;;;17.69;73.80;96987.34;5012949;28;20050;-80
2021/07/10 07:25:17;;;;;;;6.60;5.22;;;;;;;17.76;72.91;96984.66;5013195;28;20423;-80
2021/07/10 07:27:45;;;;;;;5.22;4.68;;;;;;;17.85;72.77;96980.72;5013581;28;20049;-81
2021/07/10 07:30:14;;;;;;;8.50;7.38;;;;;;;17.94;72.56;96984.69;5015524;28;20088;-80
2021/07/10 07:32:42;;;;;;;6.78;6.10;;;;;;;18.03;72.48;96982.56;5012982;28;20046;-80
2021/07/10 07:35:14;;;;;;;7.57;5.38;;;;;;;18.11;72.33;96982.28;5012954;28;20061;-80
2021/07/10 07:37:42;;;;;;;5.65;5.05;;;;;;;18.18;70.81;96982.22;5013875;28;20053;-80
2021/07/10 07:40:11;;;;;;;6.18;4.65;;;;;;;18.26;70.28;96976.63;5013059;28;20053;-80
2021/07/10 07:42:40;;;;;;;4.78;4.38;;;;;;;18.35;69.90;96980.59;5013414;28;20065;-81
2021/07/10 07:45:09;;;;;;;5.32;4.82;;;;;;;18.45;70.26;96975.56;5013267;28;20054;-79
2021/07/10 07:47:38;;;;;;;5.38;4.40;;;;;;;18.54;68.69;96970.78;5013639;28;20052;-80
2021/07/10 07:50:08;;;;;;;5.03;4.63;;;;;;;18.62;68.75;96970.47;5013297;28;20054;-80
2021/07/10 07:52:36;;;;;;;4.80;3.75;;;;;;;18.71;67.41;96963.03;5012558;28;20041;-80
2021/07/10 07:55:06;;;;;;;4.95;4.55;;;;;;;18.79;66.98;96965.41;5013062;28;20050;-80
2021/07/10 07:57:37;;;;;;;4.72;4.32;;;;;;;18.86;66.46;96960.81;5013066;28;20058;-80
2021/07/10 08:00:09;;;;;;;5.03;4.25;;;;;;;18.94;65.44;96957.88;5013130;28;20053;-80
2021/07/10 08:02:37;;;;;;;4.30;3.90;;;;;;;19.03;66.10;96960.19;5012847;28;20133;-80
2021/07/10 08:05:06;;;;;;;4.20;3.83;;;;;;;19.09;67.56;96960.09;5013351;28;20042;-80
2021/07/10 08:07:33;;;;;;;4.70;4.20;;;;;;;19.17;65.88;96956.28;5013050;28;20046;-80
2021/07/10 08:10:04;;;;;;;6.85;5.07;;;;;;;19.25;64.92;96953.31;5012671;28;20053;-80
2021/07/10 08:12:32;;;;;;;4.68;4.28;;;;;;;19.32;65.29;96953.22;5016477;28;20057;-80
2021/07/10 08:14:59;;;;;;;4.30;3.58;;;;;;;19.42;64.52;96947.38;5017096;28;20061;-80
2021/07/10 08:17:29;;;;;;;8.88;3.63;;;;;;;19.48;61.50;96951.72;5016998;28;20147;-80
2021/07/10 08:19:57;;;;;;;3.22;2.75;;;;;;;19.54;61.18;96945.50;5016693;28;20484;-81
2021/07/10 08:22:24;;;;;;;4.00;2.83;;;;;;;19.60;59.97;96952.53;5016817;28;20229;-80
2021/07/10 08:24:52;;;;;;;3.50;3.20;;;;;;;19.67;60.36;96949.78;5017257;28;20049;-80
2021/07/10 08:27:19;;;;;;;3.40;3.10;;;;;;;19.72;60.62;96937.50;5016661;28;20511;-80
2021/07/10 08:29:47;;;;;;;3.25;2.95;;;;;;;19.80;60.94;96936.31;5016521;28;20057;-80
2021/07/10 08:32:14;;;;;;;5.35;3.63;;;;;;;19.88;61.60;96935.19;5016324;28;20096;-81
2021/07/10 08:34:43;;;;;;;6.45;3.38;;;;;;;19.95;60.35;96941.16;5016053;28;20082;-81
2021/07/10 08:37:11;;;;;;;4.70;3.00;;;;;;;20.03;61.50;96927.56;5016357;28;20523;-81
2021/07/10 08:39:38;;;;;;;3.13;2.55;;;;;;;20.14;60.94;96933.88;5016064;28;20046;-80
2021/07/10 08:42:06;;;;;;;3.63;2.78;;;;;;;20.22;59.89;96935.31;5016288;28;20080;-81
2021/07/10 08:44:36;;;;;;;3.67;2.92;;;;;;;20.30;59.73;96940.25;5016100;28;20053;-80
2021/07/10 08:47:04;;;;;;;4.32;3.20;;;;;;;20.36;61.32;96926.88;5016481;28;20443;-81
2021/07/10 08:49:33;;;;;;;2.67;2.47;;;;;;;20.44;59.64;96928.31;5015911;28;20042;-81
2021/07/10 08:52:03;;;;;;;2.72;2.53;;;;;;;20.51;58.41;96923.72;5015604;28;20496;-81
2021/07/10 08:54:30;;;;;;;4.82;2.70;;;;;;;20.57;58.54;96930.75;5015685;28;20530;-80
2021/07/10 08:56:58;;;;;;;2.60;2.40;;;;;;;20.62;57.76;96930.03;5016455;28;20431;-80
2021/07/10 08:59:25;;;;;;;4.97;2.90;;;;;;;20.67;58.23;96924.03;5015931;28;20050;-81
2021/07/10 09:01:53;;;;;;;2.80;2.60;;;;;;;20.74;57.70;96932.63;5015803;28;20049;-80
2021/07/10 09:04:21;;;;;;;2.90;2.60;;;;;;;20.83;58.76;96935.69;5015853;28;20054;-80
2021/07/10 09:06:49;;;;;;;5.47;3.33;;;;;;;20.91;58.90;96922.03;5016029;28;20054;-81
2021/07/10 09:09:19;;;;;;;3.95;2.80;;;;;;;20.98;57.72;96915.53;5015847;28;20054;-80
2021/07/10 09:11:59;;;;;;;3.53;2.67;;;;;;;21.07;56.84;96915.13;5015881;28;20443;-80
2021/07/10 09:14:29;;;;;;;6.05;3.45;;;;;;;21.14;58.34;96913.94;5015692;28;20050;-81
2021/07/10 09:17:14;;;;;;;3.72;2.50;;;;;;;21.22;57.39;96918.03;5015758;28;20439;-81
2021/07/10 09:19:42;;;;;;;2.83;2.63;;;;;;;21.32;57.46;96912.09;5015177;28;20057;-81
2021/07/10 09:22:09;;;;;;;3.15;2.85;;;;;;;21.38;57.70;96905.78;5015901;28;20081;-81
2021/07/10 09:24:40;;;;;;;9.05;7.05;;;;;;;21.48;57.90;96910.47;5036725;28;20049;-79
2021/07/10 09:27:09;;;;;;;3.05;2.55;;;;;;;21.52;56.29;96911.59;5039735;28;20030;-79
2021/07/10 09:29:39;;;;;;;3.03;2.72;;;;;;;21.57;56.16;96915.13;5022128;28;20050;-80
2021/07/10 09:32:09;;;;;;;2.65;2.30;;;;;;;21.63;56.65;96913.34;5016308;28;20058;-81
2021/07/10 09:34:39;;;;;;;7.38;3.08;;;;;;;21.69;58.99;96907.06;5023554;28;20045;-80
2021/07/10 09:37:09;;;;;;;6.93;3.35;;;;;;;21.75;57.28;96916.69;5037272;28;20070;-79
2021/07/10 09:39:42;;;;;;;3.60;2.80;;;;;;;21.79;55.43;96909.84;5019776;28;20068;-81
2021/07/10 09:42:10;;;;;;;6.75;3.08;;;;;;;21.85;55.88;96910.72;5014987;28;20061;-80
2021/07/10 09:44:44;;;;;;;2.60;2.40;;;;;;;21.91;54.44;96908.91;5015196;28;20065;-80
2021/07/10 09:47:12;;;;;;;2.70;2.50;;;;;;;21.93;55.87;96902.34;5016047;28;20419;-81
2021/07/10 09:49:43;;;;;;;3.53;2.40;;;;;;;21.96;56.88;96901.03;5015448;28;20128;-80
2021/07/10 09:52:13;;;;;;;2.95;2.58;;;;;;;22.02;56.38;96900.06;5015851;28;20053;-81
2021/07/10 09:54:45;;;;;;;3.00;2.75;;;;;;;22.10;57.78;96896.94;5015212;28;20046;-81
2021/07/10 09:57:14;;;;;;;;;;;;;;;22.18;57.66;96896.50;5015827;28;20053;-81
2021/07/10 09:59:44;;;;;;;5.60;4.18;;;;;;;22.22;55.96;96896.84;5015347;28;20268;-81
2021/07/10 10:02:16;;;;;;;5.38;3.40;;;;;;;22.28;56.35;96887.88;5014995;28;20054;-80
2021/07/10 10:04:44;;;;;;;2.80;2.60;;;;;;;22.33;57.07;96890.59;5015014;28;20050;-80
2021/07/10 10:07:15;;;;;;;3.03;2.70;;;;;;;22.36;54.92;96890.09;5015502;28;20054;-81
2021/07/10 10:09:45;;;;;;;3.38;3.03;;;;;;;22.42;57.12;96888.28;5014933;28;20050;-81
2021/07/10 10:12:14;;;;;;;4.93;3.58;;;;;;;22.47;56.63;96880.34;5014769;28;20060;-81
2021/07/10 10:14:47;;;;;;;3.05;2.45;;;;;;;22.51;53.91;96878.00;5014365;28;20041;-81
2021/07/10 10:17:17;;;;;;;3.20;3.00;;;;;;;22.57;54.18;96883.13;5014750;28;20072;-81
2021/07/10 10:19:44;;;;;;;2.90;2.70;;;;;;;22.61;53.40;96881.56;5014263;28;20056;-81
2021/07/10 10:22:15;;;;;;;3.80;2.65;;;;;;;22.65;54.88;96873.09;5014971;28;20056;-81
2021/07/10 10:24:46;;;;;;;3.30;2.72;;;;;;;22.70;51.72;96875.81;5014726;28;20054;-80
2021/07/10 10:27:15;;;;;;;3.47;2.70;;;;;;;22.74;53.17;96874.22;5014792;28;20046;-80
2021/07/10 10:29:44;;;;;;;3.17;2.97;;;;;;;22.79;54.08;96868.97;5014461;28;20064;-81
2021/07/10 10:32:13;;;;;;;3.28;2.90;;;;;;;22.86;52.95;96866.88;5014173;28;20058;-80
2021/07/10 10:34:41;;;;;;;3.72;3.42;;;;;;;22.94;51.93;96863.75;5014061;28;20041;-81
2021/07/10 10:37:10;;;;;;;3.13;2.83;;;;;;;23.01;52.37;96861.72;5014294;28;20050;-81
2021/07/10 10:39:39;;;;;;;2.55;2.33;;;;;;;23.08;51.37;96858.84;5014341;28;20045;-81
2021/07/10 10:42:10;;;;;;;3.00;2.80;;;;;;;23.14;52.17;96854.38;5014602;28;20049;-81
2021/07/10 10:44:40;;;;;;;2.47;2.28;;;;;;;23.19;50.25;96855.19;5014266;28;20057;-81
2021/07/10 10:47:10;;;;;;;7.00;2.92;;;;;;;23.21;50.58;96855.72;5014457;28;20053;-81
2021/07/10 10:49:49;;;;;;;3.10;2.72;;;;;;;23.23;50.63;96844.84;5014503;28;20328;-81
2021/07/10 10:52:36;;;;;;;2.40;2.20;;;;;;;23.26;50.25;96846.19;5014398;28;20053;-81
2021/07/10 10:55:10;;;;;;;2.38;2.17;;;;;;;23.26;49.59;96839.00;5013825;28;20057;-81
2021/07/10 10:57:51;;;;;;;3.13;2.60;;;;;;;23.28;49.38;96831.56;5014425;28;20050;-81
2021/07/10 11:00:32;;;;;;;3.40;3.10;;;;;;;23.27;50.37;96824.63;5013972;28;20046;-81
2021/07/10 11:03:05;;;;;;;14.77;3.80;;;;;;;23.30;49.59;96829.44;5013552;28;20076;-81
2021/07/10 11:05:56;;;;;;;3.15;2.00;;;;;;;23.32;49.54;96832.66;5013577;28;20438;-80
2021/07/10 11:08:28;;;;;;;2.70;2.50;;;;;;;23.39;51.06;96829.75;5013915;28;20062;-81
2021/07/10 11:11:26;;;;;;;2.53;2.33;;;;;;;23.42;51.32;96827.38;5014059;28;20053;-81
2021/07/10 11:14:07;;;;;;;2.00;1.90;;;;;;;23.40;48.76;96813.53;5013522;28;20060;-81
2021/07/10 11:16:36;;;;;;;3.55;2.63;;;;;;;23.43;51.34;96814.88;5013823;28;20057;-80
2021/07/10 11:19:06;;;;;;;3.17;2.70;;;;;;;23.47;49.51;96812.50;5013140;28;20525;-81
2021/07/10 11:21:48;;;;;;;2.42;2.20;;;;;;;23.51;50.61;96813.59;5013665;28;20108;-81
2021/07/10 11:24:24;;;;;;;2.97;2.75;;;;;;;23.53;53.39;96812.25;5013268;28;20053;-81
2021/07/10 11:27:26;;;;;;;2.17;1.98;;;;;;;23.53;49.02;96798.16;5013957;28;20061;-81
2021/07/10 11:30:20;;;;;;;1.88;1.58;;;;;;;23.56;49.01;96800.28;5013747;28;20058;-81
2021/07/10 11:32:48;;;;;;;2.03;1.90;;;;;;;23.58;48.35;96792.84;5013288;28;20442;-81
2021/07/10 11:35:35;;;;;;;2.10;1.80;;;;;;;23.60;48.95;96791.50;5013571;28;20056;-81
2021/07/10 11:38:03;;;;;;;2.25;2.05;;;;;;;23.64;49.63;96792.59;5013376;28;20054;-81
2021/07/10 11:40:41;;;;;;;1.80;1.70;;;;;;;23.71;49.68;96792.34;5013249;28;20061;-81
2021/07/10 11:43:10;;;;;;;2.45;2.25;;;;;;;23.75;51.90;96788.16;5013140;28;20046;-81